Terminal Aerodrome Forecast
Issued by NWS

Home | Current Version | Previous Version | Text Only | Print | Product List | Glossary On
Versions: 1 2 3 4 5 6 7 8 9 10 11 12 13 14 15 16
000
FTUS42 KTBW 212300
TAFPIE
TAF
KPIE 212336Z 2200/2224 18007KT 6SM SHRA VCTS SCT030CB BKN060 OVC100
     FM220200 16005KT 6SM SHRA BKN040 OVC100
     FM220600 16008KT 5SM SHRA BKN020 OVC070
     FM221400 17010KT P6SM VCSH SCT025 BKN040
     FM221800 19013KT P6SM SCT025 BKN090=

USA.gov is the U.S. government's official web portal to all federal, state and local government web resources and services.